Time;durP1;ratioP1;P1;durP2;ratioP2;P2;SDS_P1;SDS_P2;PMS_P1;PMS_P2;Temp;Humidity;BMP_temperature;BMP_pressure;BME280_temperature;BME280_humidity;BME280_pressure;Samples;Min_cycle;Max_cycle;Signal;HPM_P1;HPM_P2
2022/09/17 00:00:03;;;;;;;1.70;1.60;;;;;;;16.17;56.38;98376.53;7004267;28;20296;-79
2022/09/17 00:03:25;;;;;;;1.70;1.60;;;;;;;15.98;56.85;98358.88;7005220;28;20216;-79
2022/09/17 00:06:47;;;;;;;1.70;1.60;;;;;;;15.74;56.93;98375.66;7004974;28;20217;-78
2022/09/17 00:10:09;;;;;;;2.67;1.40;;;;;;;15.52;57.83;98366.59;7004333;28;20258;-78
2022/09/17 00:13:30;;;;;;;1.83;1.50;;;;;;;15.39;58.20;98381.31;7016202;28;20270;-80
2022/09/17 00:16:54;;;;;;;1.93;1.83;;;;;;;15.54;57.85;98372.59;7012989;28;20371;-80
2022/09/17 00:20:17;;;;;;;2.30;1.50;;;;;;;15.76;57.23;98385.19;7003643;28;20242;-80
2022/09/17 00:23:38;;;;;;;1.93;1.77;;;;;;;15.40;58.06;98387.56;7012044;28;20205;-79
2022/09/17 00:27:00;;;;;;;1.97;1.80;;;;;;;15.05;59.10;98379.56;7031806;28;20726;-80
2022/09/17 00:30:21;;;;;;;1.80;1.70;;;;;;;15.32;58.21;98394.22;7031377;28;20292;-79
2022/09/17 00:33:44;;;;;;;2.03;1.70;;;;;;;15.65;57.85;98379.84;7031701;28;20284;-79
2022/09/17 00:37:05;;;;;;;1.80;1.70;;;;;;;15.86;57.50;98389.97;7031335;28;20221;-79
2022/09/17 00:40:27;;;;;;;1.80;1.70;;;;;;;15.63;57.44;98390.16;7030814;28;20298;-80
2022/09/17 00:43:50;;;;;;;2.03;1.90;;;;;;;15.80;57.31;98405.38;7031373;28;20326;-79
2022/09/17 00:47:15;;;;;;;2.00;1.50;;;;;;;15.76;57.43;98403.41;7031077;28;20225;-79
2022/09/17 00:50:43;;;;;;;2.30;1.70;;;;;;;15.55;56.56;98363.34;7030405;28;20215;-80
2022/09/17 00:54:06;;;;;;;3.60;1.80;;;;;;;15.99;56.55;98395.88;7031257;28;20600;-79
2022/09/17 00:57:29;;;;;;;5.13;1.80;;;;;;;15.83;56.39;98385.84;7030078;28;20233;-80
2022/09/17 01:00:50;;;;;;;3.03;1.70;;;;;;;16.24;56.00;98395.41;7030377;28;20229;-80
2022/09/17 01:04:16;;;;;;;1.97;1.53;;;;;;;16.34;55.92;98388.22;7030475;28;20658;-80
2022/09/17 01:07:52;;;;;;;1.83;1.37;;;;;;;16.19;55.49;98390.75;7031233;28;20709;-79
2022/09/17 01:11:31;;;;;;;2.60;1.40;;;;;;;16.26;55.21;98385.94;7025929;28;20286;-79
2022/09/17 01:15:02;;;;;;;1.70;1.60;;;;;;;16.20;55.30;98397.81;7029473;28;20264;-79
2022/09/17 01:18:32;;;;;;;1.67;1.57;;;;;;;16.01;55.23;98368.44;7029642;28;20319;-79
2022/09/17 01:22:00;;;;;;;2.33;1.90;;;;;;;16.02;55.48;98395.38;7030359;28;20276;-80
2022/09/17 01:25:24;;;;;;;2.50;1.90;;;;;;;16.02;55.95;98397.25;7030342;28;20272;-80
2022/09/17 01:28:53;;;;;;;1.40;1.33;;;;;;;16.02;55.43;98403.53;7029691;28;20229;-80
2022/09/17 01:32:20;;;;;;;1.80;1.63;;;;;;;15.89;55.51;98382.13;7030061;28;20217;-79
2022/09/17 01:35:47;;;;;;;2.40;1.77;;;;;;;15.83;56.07;98406.75;7030301;28;20550;-80
2022/09/17 01:39:13;;;;;;;1.90;1.70;;;;;;;15.74;56.55;98413.69;7029401;28;20238;-80
2022/09/17 01:42:38;;;;;;;3.03;1.50;;;;;;;15.76;56.29;98415.06;7030230;28;20218;-79
2022/09/17 01:46:03;;;;;;;2.87;1.93;;;;;;;15.82;56.67;98399.69;7030347;28;20300;-79
2022/09/17 01:49:26;;;;;;;2.63;1.70;;;;;;;15.92;56.33;98413.44;7029712;28;20190;-80
2022/09/17 01:52:51;;;;;;;4.70;2.00;;;;;;;15.89;56.40;98414.75;7029291;28;20349;-80
2022/09/17 01:56:16;;;;;;;2.73;1.77;;;;;;;15.90;56.27;98382.94;7029461;28;20217;-79
2022/09/17 01:59:41;;;;;;;1.83;1.73;;;;;;;16.04;56.19;98412.25;7028161;28;20338;-79
2022/09/17 02:03:08;;;;;;;2.53;2.00;;;;;;;15.99;56.34;98417.63;7029469;28;20854;-79
2022/09/17 02:06:32;;;;;;;2.63;2.10;;;;;;;16.02;56.34;98402.69;7029167;28;20229;-80
2022/09/17 02:09:58;;;;;;;2.00;1.63;;;;;;;15.81;56.82;98422.50;7028466;28;20261;-80
2022/09/17 02:13:22;;;;;;;3.53;1.63;;;;;;;16.28;55.92;98429.22;7028747;28;20248;-80
2022/09/17 02:16:47;;;;;;;2.97;2.00;;;;;;;15.80;57.42;98434.47;7029310;28;20772;-80
2022/09/17 02:20:09;;;;;;;3.63;1.93;;;;;;;15.85;56.55;98421.75;7028284;28;20581;-80
2022/09/17 02:23:35;;;;;;;2.87;1.70;;;;;;;15.61;56.94;98424.88;7029173;28;20216;-80
2022/09/17 02:27:00;;;;;;;2.00;1.80;;;;;;;16.05;56.58;98418.53;7028986;28;20229;-79
2022/09/17 02:30:22;;;;;;;1.80;1.70;;;;;;;16.10;55.65;98413.19;7028232;28;20265;-80
2022/09/17 02:33:45;;;;;;;2.03;1.83;;;;;;;15.69;56.24;98405.47;7028179;28;20246;-80
2022/09/17 02:37:07;;;;;;;3.70;1.90;;;;;;;15.89;55.72;98424.81;7028807;28;20721;-80
2022/09/17 02:40:35;;;;;;;2.83;1.90;;;;;;;15.76;56.07;98411.56;7030091;28;20748;-79
2022/09/17 02:44:00;;;;;;;2.40;1.80;;;;;;;15.94;56.19;98409.41;7034701;28;20265;-79
2022/09/17 02:47:47;;;;;;;3.73;2.10;;;;;;;16.02;55.40;98405.41;7034420;28;20229;-80
2022/09/17 02:51:21;;;;;;;3.07;2.00;;;;;;;15.80;55.95;98394.50;7030437;28;20204;-79
2022/09/17 02:54:50;;;;;;;2.00;1.90;;;;;;;15.58;56.36;98403.66;7035057;28;20269;-79
2022/09/17 02:58:20;;;;;;;3.17;1.83;;;;;;;15.34;56.91;98402.94;7033307;28;20285;-79
2022/09/17 03:01:44;;;;;;;5.80;2.20;;;;;;;15.62;56.34;98389.31;7034114;28;20185;-79
2022/09/17 03:05:07;;;;;;;4.23;2.00;;;;;;;15.40;56.48;98396.53;7034008;28;20206;-80
2022/09/17 03:08:30;;;;;;;4.37;2.03;;;;;;;15.52;56.21;98397.28;7033714;28;20383;-79
2022/09/17 03:11:52;;;;;;;2.60;1.90;;;;;;;15.37;56.77;98401.63;7029317;28;20218;-79
2022/09/17 03:15:15;;;;;;;2.80;2.17;;;;;;;15.39;56.52;98410.38;7033442;28;20262;-79
2022/09/17 03:18:36;;;;;;;3.10;1.80;;;;;;;15.47;56.36;98405.38;7033406;28;20277;-79
2022/09/17 03:21:58;;;;;;;3.23;1.80;;;;;;;15.54;56.47;98397.03;7034220;28;20220;-79
2022/09/17 03:25:19;;;;;;;4.50;2.03;;;;;;;15.51;56.32;98390.22;7034740;28;20341;-79
2022/09/17 03:28:41;;;;;;;6.90;2.00;;;;;;;15.35;56.41;98380.19;7037213;28;20312;-79
2022/09/17 03:32:04;;;;;;;3.93;2.00;;;;;;;15.65;56.41;98409.72;7049392;28;20238;-80
2022/09/17 03:35:26;;;;;;;2.40;2.20;;;;;;;15.61;56.42;98390.38;7031551;28;20208;-80
2022/09/17 03:38:47;;;;;;;2.27;2.07;;;;;;;15.67;56.34;98404.88;7032199;28;20233;-79
2022/09/17 03:42:09;;;;;;;3.17;2.10;;;;;;;15.87;56.35;98405.22;7032952;28;20210;-80
2022/09/17 03:45:30;;;;;;;2.77;1.93;;;;;;;15.82;56.04;98418.72;7031531;28;20561;-79
2022/09/17 03:48:53;;;;;;;6.50;1.80;;;;;;;15.86;55.54;98419.88;7032334;28;20310;-79
2022/09/17 03:52:15;;;;;;;3.20;2.07;;;;;;;15.65;56.23;98412.44;7032885;28;20205;-79
2022/09/17 03:55:37;;;;;;;1.97;1.80;;;;;;;15.30;56.94;98426.22;7033001;28;20213;-79
2022/09/17 03:58:59;;;;;;;4.70;2.10;;;;;;;15.65;56.11;98426.03;7031895;28;20228;-79
2022/09/17 04:02:21;;;;;;;3.20;1.80;;;;;;;15.88;55.32;98425.88;7032620;28;20284;-79
2022/09/17 04:05:43;;;;;;;5.50;1.80;;;;;;;15.56;55.23;98403.03;7033800;28;20299;-79
2022/09/17 04:09:05;;;;;;;2.73;1.87;;;;;;;15.38;55.97;98404.13;7033480;28;20278;-79
2022/09/17 04:12:26;;;;;;;6.27;2.00;;;;;;;15.68;55.46;98434.53;7031766;28;20243;-79
2022/09/17 04:15:48;;;;;;;3.77;2.20;;;;;;;15.42;56.12;98413.44;7031615;28;20295;-79
2022/09/17 04:19:09;;;;;;;6.17;2.20;;;;;;;15.45;56.07;98414.84;7031216;28;20229;-79
2022/09/17 04:22:32;;;;;;;4.07;2.27;;;;;;;15.61;55.47;98435.75;7031637;28;20225;-79
2022/09/17 04:25:54;;;;;;;2.23;1.70;;;;;;;15.46;56.06;98428.16;7031621;28;20342;-79
2022/09/17 04:29:15;;;;;;;3.57;2.33;;;;;;;15.59;55.62;98425.16;7030934;28;20292;-79
2022/09/17 04:32:37;;;;;;;2.93;1.67;;;;;;;15.20;56.43;98417.03;7031265;28;20214;-80
2022/09/17 04:35:58;;;;;;;3.73;1.90;;;;;;;15.76;55.91;98431.38;7031073;28;20309;-79
2022/09/17 04:39:21;;;;;;;5.77;2.50;;;;;;;15.48;56.50;98441.50;7031084;28;20309;-79
2022/09/17 04:42:43;;;;;;;5.70;2.37;;;;;;;15.52;56.20;98453.53;7030841;28;20349;-80
2022/09/17 04:46:05;;;;;;;6.80;2.10;;;;;;;15.50;55.96;98448.34;7029325;28;20373;-79
2022/09/17 04:49:28;;;;;;;8.03;2.23;;;;;;;15.03;56.85;98460.47;7030975;28;20264;-80
2022/09/17 04:52:50;;;;;;;3.10;2.10;;;;;;;15.15;56.69;98455.00;7031048;28;20208;-79
2022/09/17 04:56:12;;;;;;;3.10;2.40;;;;;;;15.43;56.43;98463.97;7032179;28;20225;-79
2022/09/17 04:59:34;;;;;;;2.30;2.00;;;;;;;15.29;56.59;98465.28;7032059;28;20382;-80
2022/09/17 05:02:56;;;;;;;3.50;1.90;;;;;;;15.17;56.34;98463.72;7032090;28;20288;-79
2022/09/17 05:06:17;;;;;;;3.43;1.90;;;;;;;15.05;56.07;98462.94;7032198;28;20308;-79
2022/09/17 05:09:39;;;;;;;3.73;2.17;;;;;;;14.97;56.98;98485.84;7022108;28;20255;-79
2022/09/17 05:13:01;;;;;;;3.23;1.93;;;;;;;14.64;58.09;98484.88;7003926;28;20299;-79
2022/09/17 05:16:23;;;;;;;5.43;2.40;;;;;;;14.63;57.86;98483.22;7028140;28;20228;-79
2022/09/17 05:19:44;;;;;;;5.10;2.23;;;;;;;15.04;56.04;98462.09;7031460;28;20337;-80
2022/09/17 05:23:06;;;;;;;5.43;2.07;;;;;;;14.91;56.39;98466.97;7032658;28;20282;-79
2022/09/17 05:26:28;;;;;;;7.30;2.50;;;;;;;15.11;55.60;98472.81;7032545;28;20378;-79
2022/09/17 05:29:51;;;;;;;4.20;2.37;;;;;;;15.15;55.51;98477.53;7021920;28;20285;-79
2022/09/17 05:33:12;;;;;;;5.60;2.40;;;;;;;15.10;54.95;98477.41;7004087;28;20252;-79
2022/09/17 05:36:34;;;;;;;5.07;2.77;;;;;;;15.32;55.27;98483.00;7003891;28;20970;-80
2022/09/17 05:39:55;;;;;;;4.27;2.30;;;;;;;15.43;55.02;98493.03;7002862;28;20232;-80
2022/09/17 05:43:17;;;;;;;7.80;2.20;;;;;;;15.62;53.92;98479.00;7002463;28;20244;-80
2022/09/17 05:46:40;;;;;;;5.83;2.30;;;;;;;15.08;55.18;98482.28;7010052;28;20352;-80
2022/09/17 05:50:01;;;;;;;9.83;2.80;;;;;;;15.38;54.32;98468.47;7029988;28;20235;-80
2022/09/17 05:53:23;;;;;;;5.27;2.33;;;;;;;15.28;54.79;98490.00;7032247;28;20337;-80
2022/09/17 05:56:45;;;;;;;3.93;2.37;;;;;;;15.05;55.25;98499.03;7007196;28;20828;-80
2022/09/17 06:00:07;;;;;;;6.20;2.60;;;;;;;14.99;55.46;98497.28;7003599;28;20301;-80
2022/09/17 06:03:30;;;;;;;6.80;2.50;;;;;;;15.08;55.40;98508.59;7021895;28;20685;-80
2022/09/17 06:06:52;;;;;;;7.03;2.70;;;;;;;15.53;55.89;98523.94;7031928;28;20705;-78
2022/09/17 06:10:13;;;;;;;5.67;2.60;;;;;;;15.32;54.50;98507.44;7033555;28;20209;-80
2022/09/17 06:13:35;;;;;;;5.37;2.30;;;;;;;15.44;54.55;98522.69;7033701;28;20281;-79
2022/09/17 06:16:57;;;;;;;5.23;2.43;;;;;;;15.53;53.94;98504.09;7031385;28;20715;-80
2022/09/17 06:20:20;;;;;;;7.13;2.80;;;;;;;15.45;54.59;98521.59;7031129;28;20560;-79
2022/09/17 06:23:42;;;;;;;4.30;2.33;;;;;;;15.19;55.13;98508.56;7031699;28;20270;-80
2022/09/17 06:27:03;;;;;;;4.73;2.60;;;;;;;15.48;54.51;98525.72;7032991;28;20705;-80
2022/09/17 06:30:25;;;;;;;2.60;2.23;;;;;;;15.74;54.32;98522.44;7031157;28;20283;-80
2022/09/17 06:33:48;;;;;;;3.73;2.37;;;;;;;15.55;53.77;98519.09;7032299;28;20335;-80
2022/09/17 06:37:10;;;;;;;6.80;4.10;;;;;;;15.44;54.49;98524.56;7032509;28;20220;-79
2022/09/17 06:40:32;;;;;;;6.80;3.83;;;;;;;15.40;55.15;98520.69;7032010;28;20261;-80
2022/09/17 06:43:54;;;;;;;10.60;5.50;;;;;;;15.39;55.38;98525.28;7032282;28;20210;-79
2022/09/17 06:47:15;;;;;;;19.00;10.97;;;;;;;15.50;54.33;98526.28;7038473;28;20260;-80
2022/09/17 06:50:37;;;;;;;8.87;6.50;;;;;;;15.14;55.24;98523.91;7036510;28;20246;-80
2022/09/17 06:54:00;;;;;;;14.70;10.57;;;;;;;15.41;54.79;98535.91;7031152;28;20283;-80
2022/09/17 06:57:22;;;;;;;6.47;2.87;;;;;;;15.40;54.77;98542.44;7028572;28;20308;-80
2022/09/17 07:00:43;;;;;;;4.63;3.23;;;;;;;15.46;53.69;98534.13;7030864;28;20264;-80
2022/09/17 07:04:05;;;;;;;7.07;2.50;;;;;;;15.66;54.13;98529.06;7030729;28;20229;-80
2022/09/17 07:07:27;;;;;;;5.27;3.00;;;;;;;15.84;52.95;98534.31;7030381;28;20243;-80
2022/09/17 07:10:50;;;;;;;6.77;2.83;;;;;;;15.06;54.54;98538.72;7030654;28;20212;-80
2022/09/17 07:14:12;;;;;;;5.93;2.43;;;;;;;15.33;54.40;98539.84;7030960;28;20244;-80
2022/09/17 07:17:34;;;;;;;4.03;2.50;;;;;;;15.34;53.69;98552.34;7034740;28;20660;-80
2022/09/17 07:20:56;;;;;;;4.80;2.40;;;;;;;15.12;54.35;98540.47;7022266;28;20232;-81
2022/09/17 07:24:18;;;;;;;5.90;2.30;;;;;;;14.99;54.66;98542.63;7030761;28;20209;-80
2022/09/17 07:27:40;;;;;;;6.90;2.97;;;;;;;15.52;53.90;98535.06;7034281;28;20320;-80
2022/09/17 07:31:04;;;;;;;4.87;2.40;;;;;;;15.50;54.34;98570.63;7035924;28;20277;-80
2022/09/17 07:34:26;;;;;;;5.67;2.67;;;;;;;15.35;55.40;98545.88;7036260;28;20210;-80
2022/09/17 07:37:48;;;;;;;7.33;3.90;;;;;;;15.20;56.19;98572.69;7034305;28;20224;-80
2022/09/17 07:41:13;;;;;;;4.27;3.60;;;;;;;14.88;57.20;98555.16;7036798;28;20229;-80
2022/09/17 07:44:37;;;;;;;6.47;3.87;;;;;;;15.14;57.62;98580.94;7034557;28;20334;-80
2022/09/17 07:47:59;;;;;;;4.57;2.77;;;;;;;15.21;58.67;98590.63;7034967;28;20362;-78
2022/09/17 07:51:22;;;;;;;4.03;2.53;;;;;;;14.99;59.75;98591.50;7035857;28;20205;-79
2022/09/17 07:54:43;;;;;;;6.53;3.10;;;;;;;15.23;60.57;98593.09;7034616;28;20837;-78
2022/09/17 07:58:05;;;;;;;6.03;3.70;;;;;;;14.87;62.67;98593.41;7033638;28;20285;-78
2022/09/17 08:01:28;;;;;;;5.17;3.17;;;;;;;15.28;61.25;98602.19;7034898;28;20225;-80
2022/09/17 08:04:50;;;;;;;3.50;2.60;;;;;;;15.30;59.65;98602.78;7033533;28;20197;-80
2022/09/17 08:08:11;;;;;;;9.37;2.90;;;;;;;15.16;60.10;98514.47;7034777;28;20296;-81
2022/09/17 08:11:33;;;;;;;6.50;4.63;;;;;;;14.95;61.09;98563.16;7034252;28;20249;-81
2022/09/17 08:14:55;;;;;;;64.30;37.87;;;;;;;15.27;61.35;98608.69;7034560;28;20325;-80
2022/09/17 08:18:17;;;;;;;5.57;2.80;;;;;;;15.19;60.73;98590.03;7034103;28;20316;-80
2022/09/17 08:21:39;;;;;;;3.97;2.90;;;;;;;14.80;61.01;98577.22;7033759;28;20255;-80
2022/09/17 08:25:02;;;;;;;4.67;2.93;;;;;;;14.67;62.06;98588.34;7033758;28;20267;-80
2022/09/17 08:28:25;;;;;;;4.90;3.03;;;;;;;14.92;61.35;98613.34;7033754;28;20225;-80
2022/09/17 08:31:47;;;;;;;3.37;3.07;;;;;;;15.35;60.16;98572.22;7035079;28;20243;-80
2022/09/17 08:35:10;;;;;;;8.27;3.10;;;;;;;15.38;60.94;98599.72;7034744;28;20232;-81
2022/09/17 08:38:33;;;;;;;4.70;3.07;;;;;;;15.51;61.43;98596.72;7032371;28;20257;-80
2022/09/17 08:42:05;;;;;;;8.30;3.60;;;;;;;15.31;60.33;98609.88;7033444;28;20359;-80
2022/09/17 08:45:27;;;;;;;7.53;3.30;;;;;;;15.37;59.44;98578.22;7031985;28;20285;-79
2022/09/17 08:48:52;;;;;;;3.00;2.70;;;;;;;15.88;59.21;98581.69;7032622;28;20227;-80
2022/09/17 08:52:44;;;;;;;7.43;3.03;;;;;;;15.55;58.75;98605.19;7033147;28;20292;-80
2022/09/17 08:56:11;;;;;;;4.23;3.03;;;;;;;15.71;58.59;98577.25;7032444;28;20221;-79
2022/09/17 08:59:35;;;;;;;9.60;3.13;;;;;;;16.52;56.93;98585.81;7031090;28;20670;-79
2022/09/17 09:03:09;;;;;;;4.70;2.63;;;;;;;16.57;55.63;98580.44;7032623;28;20569;-78
2022/09/17 09:06:34;;;;;;;6.33;2.97;;;;;;;15.66;57.66;98561.69;7031427;28;20429;-79
2022/09/17 09:10:05;;;;;;;6.70;2.70;;;;;;;16.90;55.44;98603.00;7031322;28;20246;-78
2022/09/17 09:13:31;;;;;;;8.50;3.60;;;;;;;17.00;55.43;98585.97;7031475;28;20290;-78
2022/09/17 09:16:54;;;;;;;7.47;3.00;;;;;;;17.20;53.70;98594.41;7031926;28;20224;-79
2022/09/17 09:20:18;;;;;;;5.83;2.80;;;;;;;16.68;53.78;98593.94;7031077;28;20275;-78
2022/09/17 09:23:47;;;;;;;9.83;3.03;;;;;;;16.54;54.14;98586.38;7031964;28;20707;-79
2022/09/17 09:27:17;;;;;;;9.43;3.33;;;;;;;16.31;54.93;98595.50;7028438;28;20259;-79
2022/09/17 09:30:51;;;;;;;10.93;3.00;;;;;;;16.69;54.72;98601.03;7016232;28;20206;-79
2022/09/17 09:34:14;;;;;;;6.30;3.10;;;;;;;17.02;53.36;98611.91;7002923;28;20236;-78
2022/09/17 09:37:39;;;;;;;9.73;4.20;;;;;;;16.88;52.84;98586.06;7003344;28;20764;-79
2022/09/17 09:41:08;;;;;;;7.03;2.80;;;;;;;16.99;52.96;98598.75;7003485;28;20322;-79
2022/09/17 09:44:30;;;;;;;6.07;3.60;;;;;;;17.29;53.36;98599.16;7001873;28;20186;-79
2022/09/17 09:47:59;;;;;;;11.93;4.13;;;;;;;17.16;53.74;98585.13;7015414;28;20278;-79
2022/09/17 09:51:31;;;;;;;12.73;4.20;;;;;;;16.78;52.96;98606.88;7031685;28;20297;-79
2022/09/17 09:55:02;;;;;;;7.63;3.03;;;;;;;16.87;53.32;98594.50;7032953;28;20213;-79
2022/09/17 09:58:31;;;;;;;5.97;2.87;;;;;;;16.78;53.41;98606.88;7031661;28;20251;-79
2022/09/17 10:01:53;;;;;;;11.93;3.33;;;;;;;16.86;53.34;98598.31;7036099;28;20223;-79
2022/09/17 10:05:16;;;;;;;5.03;3.07;;;;;;;17.21;52.57;98610.53;7037991;28;20233;-79
2022/09/17 10:08:40;;;;;;;7.40;2.77;;;;;;;17.16;51.32;98596.03;7032061;28;20258;-80
2022/09/17 10:12:05;;;;;;;6.87;3.67;;;;;;;17.67;50.86;98606.50;7032625;28;20214;-80
2022/09/17 10:15:28;;;;;;;5.90;2.60;;;;;;;18.04;50.42;98600.09;7030080;28;20260;-80
2022/09/17 10:18:51;;;;;;;7.73;2.50;;;;;;;18.42;49.27;98591.75;7030168;28;20349;-80
2022/09/17 10:22:24;;;;;;;7.73;2.47;;;;;;;17.97;48.34;98595.91;7018247;28;20232;-80
2022/09/17 10:25:46;;;;;;;7.23;2.53;;;;;;;17.70;48.97;98595.91;7015496;28;20256;-80
2022/09/17 10:29:14;;;;;;;11.60;2.90;;;;;;;18.09;49.10;98600.16;7030205;28;20302;-80
2022/09/17 10:32:35;;;;;;;5.90;2.63;;;;;;;17.81;48.65;98599.59;7030877;28;20213;-80
2022/09/17 10:36:00;;;;;;;6.57;2.70;;;;;;;18.12;46.53;98596.09;7030546;28;20341;-80
2022/09/17 10:39:32;;;;;;;6.37;2.77;;;;;;;17.68;48.29;98584.44;7029798;28;20556;-80
2022/09/17 10:43:20;;;;;;;5.70;2.50;;;;;;;17.27;49.72;98589.63;7031288;28;20264;-80
2022/09/17 10:46:42;;;;;;;5.33;2.33;;;;;;;17.80;49.21;98592.50;7030850;28;20296;-79
2022/09/17 10:50:05;;;;;;;3.57;2.50;;;;;;;17.93;47.77;98581.16;7029444;28;20199;-80
2022/09/17 10:53:27;;;;;;;5.53;2.50;;;;;;;18.06;47.46;98576.13;7029952;28;20337;-80
2022/09/17 10:56:54;;;;;;;6.20;2.30;;;;;;;17.43;48.49;98548.72;7029658;28;20279;-80
2022/09/17 11:00:17;;;;;;;6.03;2.30;;;;;;;18.51;46.29;98573.81;7028986;28;20646;-80
2022/09/17 11:03:53;;;;;;;3.90;2.53;;;;;;;18.99;45.75;98572.78;7035536;28;20806;-80
2022/09/17 11:07:32;;;;;;;4.73;2.43;;;;;;;19.16;44.50;98562.50;7035648;28;20224;-80
2022/09/17 11:11:01;;;;;;;4.70;1.90;;;;;;;18.89;44.72;98526.25;7035684;28;20201;-80
2022/09/17 11:14:39;;;;;;;3.60;2.10;;;;;;;18.46;45.30;98532.81;7035253;28;20248;-79
2022/09/17 11:18:22;;;;;;;7.50;2.37;;;;;;;18.76;43.47;98543.13;7034757;28;20217;-80
2022/09/17 11:21:46;;;;;;;5.43;2.10;;;;;;;19.21;42.92;98543.44;7018445;28;20320;-80
2022/09/17 11:25:21;;;;;;;4.53;2.00;;;;;;;18.84;42.95;98548.09;7035565;28;20208;-80
2022/09/17 11:28:59;;;;;;;2.83;1.77;;;;;;;18.82;43.31;98553.81;7035463;28;20320;-80
2022/09/17 11:32:34;;;;;;;4.30;1.90;;;;;;;18.65;42.45;98563.25;7035503;28;20658;-80
2022/09/17 11:35:59;;;;;;;3.90;2.20;;;;;;;18.78;42.85;98549.16;7035243;28;20297;-80
2022/09/17 11:39:23;;;;;;;5.33;2.00;;;;;;;19.01;41.27;98555.03;7040461;28;20209;-80
2022/09/17 11:42:52;;;;;;;5.13;1.93;;;;;;;18.81;40.73;98533.03;7034248;28;20224;-80
2022/09/17 11:46:17;;;;;;;3.37;1.90;;;;;;;19.50;40.52;98517.25;7035143;28;20319;-79
2022/09/17 11:49:44;;;;;;;5.57;1.80;;;;;;;19.42;41.22;98539.66;7033772;28;20292;-80
2022/09/17 11:53:09;;;;;;;2.43;1.60;;;;;;;19.57;40.73;98537.00;7036333;28;20268;-79
2022/09/17 11:56:34;;;;;;;2.93;2.00;;;;;;;19.34;40.50;98540.19;7035144;28;20269;-80
2022/09/17 12:00:00;;;;;;;6.13;2.10;;;;;;;19.41;43.37;98529.81;7033505;28;20284;-80
2022/09/17 12:03:27;;;;;;;2.57;1.90;;;;;;;18.42;47.25;98545.34;7035022;28;20213;-79
2022/09/17 12:06:56;;;;;;;4.33;2.00;;;;;;;18.77;46.43;98528.38;7034104;28;20229;-79
2022/09/17 12:10:28;;;;;;;2.50;1.90;;;;;;;18.87;45.58;98525.72;7034112;28;20203;-80
2022/09/17 12:13:51;;;;;;;4.00;2.20;;;;;;;18.92;44.77;98525.75;7034172;28;20283;-80
2022/09/17 12:17:33;;;;;;;4.60;1.93;;;;;;;18.11;45.02;98531.69;7034816;28;20230;-79
2022/09/17 12:20:58;;;;;;;4.77;2.20;;;;;;;18.11;44.57;98537.94;7037784;28;20266;-79
2022/09/17 12:24:22;;;;;;;2.83;1.67;;;;;;;18.26;45.33;98527.16;7014428;28;20666;-79
2022/09/17 12:27:49;;;;;;;3.67;2.07;;;;;;;18.67;45.59;98522.84;7008357;28;20263;-79
2022/09/17 12:31:15;;;;;;;4.10;2.10;;;;;;;19.00;45.06;98496.03;7024257;28;20296;-80
2022/09/17 12:34:42;;;;;;;3.50;1.70;;;;;;;18.79;45.14;98520.72;7033111;28;20733;-79
2022/09/17 12:38:14;;;;;;;2.60;1.80;;;;;;;19.11;43.56;98508.59;7033900;28;20232;-79
2022/09/17 12:41:45;;;;;;;3.23;1.60;;;;;;;18.80;44.71;98516.94;7010311;28;20247;-79
2022/09/17 12:45:23;;;;;;;3.53;1.80;;;;;;;18.14;49.83;98539.34;7032697;28;20215;-80
2022/09/17 12:49:09;;;;;;;5.03;1.83;;;;;;;17.95;49.68;98510.78;7032639;28;20269;-79
2022/09/17 12:52:40;;;;;;;4.00;2.23;;;;;;;18.35;48.21;98505.72;7033541;28;20844;-77
2022/09/17 12:56:05;;;;;;;3.97;2.07;;;;;;;19.45;44.84;98520.00;7033240;28;20901;-80
2022/09/17 12:59:31;;;;;;;3.20;2.17;;;;;;;19.72;46.25;98505.03;7032364;28;20258;-79
2022/09/17 13:02:58;;;;;;;4.43;2.00;;;;;;;20.29;44.90;98513.03;7016798;28;20225;-80
2022/09/17 13:06:38;;;;;;;5.57;2.33;;;;;;;19.43;45.40;98535.84;7007664;28;20371;-78
2022/09/17 13:10:03;;;;;;;3.87;1.90;;;;;;;19.32;44.16;98532.25;7022553;28;20258;-79
2022/09/17 13:13:33;;;;;;;2.07;1.50;;;;;;;18.18;44.72;98546.75;7032262;28;20565;-80
2022/09/17 13:17:01;;;;;;;3.37;1.27;;;;;;;17.89;44.28;98552.75;7032655;28;20292;-80
2022/09/17 13:20:26;;;;;;;1.53;1.40;;;;;;;17.61;45.05;98561.16;7026597;28;20234;-79
2022/09/17 13:23:49;;;;;;;3.53;1.63;;;;;;;18.25;43.55;98550.09;7004205;28;20819;-79
2022/09/17 13:27:20;;;;;;;1.60;1.50;;;;;;;17.90;44.77;98513.47;7004944;28;20222;-79
2022/09/17 13:30:58;;;;;;;4.17;2.10;;;;;;;18.42;45.55;98556.28;7004313;28;20653;-79
2022/09/17 13:34:31;;;;;;;2.20;1.40;;;;;;;18.09;46.10;98564.69;7004944;28;20216;-79
2022/09/17 13:37:56;;;;;;;1.23;1.20;;;;;;;17.78;46.21;98556.44;7041890;28;20252;-79
2022/09/17 13:41:20;;;;;;;2.00;1.13;;;;;;;18.51;44.27;98557.41;7040252;28;20268;-79
2022/09/17 13:44:45;;;;;;;1.37;1.20;;;;;;;18.22;45.42;98564.25;7039812;28;20227;-79
2022/09/17 13:48:09;;;;;;;1.37;1.20;;;;;;;17.37;46.51;98571.50;7028728;28;20532;-78
2022/09/17 13:51:52;;;;;;;2.53;1.57;;;;;;;17.34;47.61;98555.63;7033428;28;20234;-79
2022/09/17 13:55:33;;;;;;;2.37;1.30;;;;;;;16.99;48.67;98573.44;7031575;28;20778;-78
2022/09/17 13:58:54;;;;;;;1.63;1.50;;;;;;;17.63;47.52;98570.75;7030669;28;20705;-78
2022/09/17 14:02:31;;;;;;;1.40;1.30;;;;;;;18.06;46.57;98542.53;7031105;28;20583;-79
2022/09/17 14:05:53;;;;;;;1.90;1.30;;;;;;;18.25;46.34;98552.81;7030584;28;20585;-79
2022/09/17 14:09:32;;;;;;;1.03;1.00;;;;;;;18.35;46.00;98552.91;7030411;28;20542;-79
2022/09/17 14:12:56;;;;;;;1.70;1.30;;;;;;;18.11;45.52;98562.50;7031030;28;20215;-79
2022/09/17 14:16:40;;;;;;;1.73;1.60;;;;;;;17.46;47.48;98570.00;7029567;28;20239;-78
2022/09/17 14:20:04;;;;;;;1.60;1.40;;;;;;;17.63;47.58;98567.22;7031447;28;20207;-78
2022/09/17 14:23:25;;;;;;;3.00;1.80;;;;;;;17.63;47.97;98543.47;7032340;28;20400;-79
2022/09/17 14:26:58;;;;;;;3.33;1.87;;;;;;;17.97;47.31;98571.38;7031073;28;20763;-79
2022/09/17 14:30:20;;;;;;;2.43;1.33;;;;;;;17.76;47.83;98555.88;7030247;28;20332;-79
2022/09/17 14:33:44;;;;;;;4.00;1.50;;;;;;;17.87;46.98;98563.09;7030084;28;20262;-78
2022/09/17 14:37:09;;;;;;;2.90;1.50;;;;;;;18.13;46.55;98548.59;7029753;28;20258;-79
2022/09/17 14:40:32;;;;;;;4.03;1.67;;;;;;;18.70;45.76;98527.78;7030106;28;20282;-78
2022/09/17 14:44:00;;;;;;;2.27;1.63;;;;;;;18.96;44.41;98529.56;7030355;28;20296;-78
2022/09/17 14:47:22;;;;;;;1.77;1.67;;;;;;;18.16;46.61;98550.84;7028123;28;20221;-78
2022/09/17 14:50:44;;;;;;;2.53;1.50;;;;;;;18.52;46.69;98530.94;7028400;28;20700;-79
2022/09/17 14:54:26;;;;;;;1.30;1.17;;;;;;;19.29;44.77;98535.50;7032656;28;20211;-78
2022/09/17 14:57:51;;;;;;;2.80;1.60;;;;;;;18.94;45.88;98540.78;7028936;28;20240;-79
2022/09/17 15:01:22;;;;;;;2.00;1.50;;;;;;;18.94;45.17;98539.97;7029810;28;20361;-79
2022/09/17 15:04:44;;;;;;;3.47;1.70;;;;;;;18.44;44.82;98502.22;7007220;28;20298;-79
2022/09/17 15:08:12;;;;;;;2.37;1.43;;;;;;;18.39;45.62;98526.75;7025335;28;20229;-79
2022/09/17 15:11:35;;;;;;;1.83;1.50;;;;;;;18.38;44.54;98508.75;7022657;28;20283;-79
2022/09/17 15:14:57;;;;;;;2.80;1.60;;;;;;;18.50;45.07;98523.00;7024556;28;20256;-79
2022/09/17 15:18:21;;;;;;;4.20;1.80;;;;;;;19.02;44.54;98531.25;7026796;28;20357;-80
2022/09/17 15:21:44;;;;;;;2.60;1.37;;;;;;;19.01;44.92;98524.97;7024032;28;20229;-79
2022/09/17 15:25:08;;;;;;;4.13;1.80;;;;;;;18.99;44.42;98518.94;7024832;28;20672;-78
2022/09/17 15:28:33;;;;;;;2.90;1.93;;;;;;;18.60;44.95;98497.69;7029469;28;20853;-79
2022/09/17 15:31:54;;;;;;;3.40;1.87;;;;;;;19.05;45.01;98525.28;7029177;28;20250;-77
2022/09/17 15:35:24;;;;;;;2.30;2.07;;;;;;;18.67;45.30;98520.13;7029331;28;20275;-79
2022/09/17 15:38:46;;;;;;;2.93;2.30;;;;;;;18.73;45.17;98524.53;7028724;28;20221;-79
2022/09/17 15:42:18;;;;;;;2.57;1.50;;;;;;;18.81;45.04;98477.59;7024006;28;20227;-79
2022/09/17 15:45:41;;;;;;;3.90;1.90;;;;;;;18.46;45.37;98508.25;7029224;28;20245;-78
2022/09/17 15:49:03;;;;;;;4.13;1.87;;;;;;;18.34;48.25;98523.97;7033907;28;20199;-79
2022/09/17 15:52:31;;;;;;;5.50;2.43;;;;;;;18.37;50.18;98515.28;7036018;28;20235;-78
2022/09/17 15:56:04;;;;;;;8.33;2.20;;;;;;;18.34;50.79;98531.38;7035091;28;20330;-78
2022/09/17 15:59:27;;;;;;;4.20;2.17;;;;;;;17.94;50.31;98544.63;7017250;28;20343;-78
2022/09/17 16:02:49;;;;;;;2.80;1.80;;;;;;;17.36;50.46;98531.69;7006054;28;20230;-78
2022/09/17 16:06:35;;;;;;;3.13;1.80;;;;;;;17.86;50.84;98551.34;7006090;28;20251;-79